Time;durP1;ratioP1;P1;durP2;ratioP2;P2;SDS_P1;SDS_P2;PMS_P1;PMS_P2;Temp;Humidity;BMP_temperature;BMP_pressure;BME280_temperature;BME280_humidity;BME280_pressure;Samples;Min_cycle;Max_cycle;Signal;HPM_P1;HPM_P2
2022/08/11 00:01:12;;;;;;;0.20;0.13;;;13.90;99.90;;;;;;5021256;28;20050;-76
2022/08/11 00:03:45;;;;;;;0.20;0.20;;;14.00;99.90;;;;;;5018219;28;20035;-75
2022/08/11 00:06:13;;;;;;;0.38;0.22;;;14.00;99.90;;;;;;5008541;28;20155;-74
2022/08/11 00:08:40;;;;;;;0.50;0.50;;;13.90;99.90;;;;;;5020044;28;20050;-74
2022/08/11 00:11:08;;;;;;;4.85;1.58;;;13.90;99.90;;;;;;5020177;28;20038;-74
2022/08/11 00:13:40;;;;;;;0.82;0.47;;;14.10;99.90;;;;;;5019085;28;20183;-75
2022/08/11 00:16:24;;;;;;;0.75;0.50;;;14.10;99.90;;;;;;5001792;28;20042;-74
2022/08/11 00:18:53;;;;;;;0.20;0.20;;;14.00;99.90;;;;;;5001441;28;20043;-75
2022/08/11 00:21:20;;;;;;;0.32;0.32;;;14.00;99.90;;;;;;5000070;28;20054;-74
2022/08/11 00:23:53;;;;;;;1.05;0.47;;;14.00;99.90;;;;;;4998898;28;20047;-74
2022/08/11 00:26:22;;;;;;;1.52;1.02;;;14.00;99.90;;;;;;5006216;28;20065;-74
2022/08/11 00:28:47;;;;;;;0.47;0.30;;;14.00;99.90;;;;;;5015183;28;20062;-75
2022/08/11 00:31:32;;;;;;;0.43;0.35;;;14.10;99.90;;;;;;5014289;28;20102;-75
2022/08/11 00:34:00;;;;;;;0.13;0.13;;;14.00;99.90;;;;;;4997674;28;20039;-74
2022/08/11 00:36:37;;;;;;;0.95;0.82;;;13.90;99.90;;;;;;5009754;28;20038;-74
2022/08/11 00:39:05;;;;;;;1.00;0.82;;;14.00;99.90;;;;;;5018710;28;20038;-74
2022/08/11 00:41:38;;;;;;;1.27;0.95;;;13.80;99.90;;;;;;5017012;28;20160;-75
2022/08/11 00:44:11;;;;;;;1.30;1.13;;;13.80;99.90;;;;;;5018787;28;20125;-74
2022/08/11 00:47:03;;;;;;;0.98;0.93;;;13.70;99.90;;;;;;5007864;28;20106;-74
2022/08/11 00:50:04;;;;;;;0.47;0.43;;;13.80;99.90;;;;;;4999891;28;20057;-74
2022/08/11 00:52:46;;;;;;;0.88;0.77;;;13.70;99.90;;;;;;5006641;28;20038;-74
2022/08/11 00:55:32;;;;;;;2.00;1.73;;;13.70;99.90;;;;;;5008959;28;20448;-74
2022/08/11 00:58:17;;;;;;;2.97;2.58;;;13.70;99.90;;;;;;4999974;28;20059;-74
2022/08/11 01:01:06;;;;;;;2.15;1.85;;;13.80;99.90;;;;;;5000417;28;20070;-74
2022/08/11 01:03:47;;;;;;;5.60;1.95;;;13.80;99.90;;;;;;5013002;28;20042;-74
2022/08/11 01:06:31;;;;;;;2.53;1.02;;;13.80;99.90;;;;;;5017026;28;20056;-74
2022/08/11 01:09:32;;;;;;;2.97;1.77;;;13.90;99.90;;;;;;5016787;28;20050;-74
2022/08/11 01:12:28;;;;;;;1.67;1.30;;;13.80;99.90;;;;;;5015914;28;20468;-75
2022/08/11 01:15:15;;;;;;;0.93;0.73;;;13.70;99.90;;;;;;4996962;28;20070;-74
2022/08/11 01:18:18;;;;;;;1.05;0.55;;;13.70;99.90;;;;;;4995299;28;20053;-74
2022/08/11 01:21:02;;;;;;;5.88;2.00;;;13.60;99.90;;;;;;4994686;28;20046;-74
2022/08/11 01:23:47;;;;;;;1.77;1.33;;;13.80;99.90;;;;;;5005827;28;20043;-75
2022/08/11 01:26:36;;;;;;;3.08;1.60;;;13.80;99.90;;;;;;4994871;28;20054;-74
2022/08/11 01:29:39;;;;;;;2.00;1.25;;;13.90;99.90;;;;;;4977224;28;20102;-74
2022/08/11 01:32:23;;;;;;;1.10;0.82;;;13.90;99.90;;;;;;4995530;28;20051;-74
2022/08/11 01:35:23;;;;;;;1.15;0.95;;;13.80;99.90;;;;;;4995880;28;20049;-74
2022/08/11 01:38:17;;;;;;;1.13;1.02;;;13.80;99.90;;;;;;4994983;28;20046;-74
2022/08/11 01:41:09;;;;;;;1.77;1.10;;;13.80;99.90;;;;;;4994078;28;20053;-74
2022/08/11 01:47:49;;;;;;;1.45;1.13;;;13.70;99.90;;;;;;5014384;28;20050;-75
2022/08/11 01:50:08;;;;;;;5.03;1.52;;;13.70;99.90;;;;;;5011325;28;20046;-75
2022/08/11 01:52:47;;;;;;;0.40;0.40;;;13.60;99.90;;;;;;4996610;28;20055;-75
2022/08/11 01:55:22;;;;;;;0.35;0.35;;;13.60;99.90;;;;;;4996591;28;20055;-75
2022/08/11 01:58:28;;;;;;;0.82;0.73;;;13.50;99.90;;;;;;4996074;28;20038;-75
2022/08/11 02:01:21;;;;;;;0.20;0.17;;;13.50;99.90;;;;;;5007423;28;20421;-74
2022/08/11 02:04:05;;;;;;;2.13;1.30;;;13.50;99.90;;;;;;5014799;28;20066;-74
2022/08/11 02:07:08;;;;;;;0.20;0.20;;;13.40;99.90;;;;;;5013814;28;20102;-75
2022/08/11 02:11:29;;;;;;;0.80;0.63;;;13.40;99.90;;;;;;4997010;28;20069;-75
2022/08/11 02:12:59;;;;;;;0.65;0.57;;;13.40;99.90;;;;;;4996156;28;20047;-74
2022/08/11 02:15:33;;;;;;;0.73;0.65;;;13.40;99.90;;;;;;4995883;28;20033;-74
2022/08/11 02:18:17;;;;;;;0.35;0.35;;;13.50;99.90;;;;;;4998612;28;20042;-75
2022/08/11 02:23:53;;;;;;;0.50;0.50;;;13.60;99.90;;;;;;5015532;28;20031;-74
2022/08/11 02:26:21;;;;;;;0.22;0.22;;;13.60;99.90;;;;;;5013479;28;20098;-75
2022/08/11 02:29:22;;;;;;;0.40;0.32;;;13.60;99.90;;;;;;5015303;28;20038;-74
2022/08/11 02:35:10;;;;;;;0.20;0.20;;;13.70;99.90;;;;;;5013848;28;20050;-75
2022/08/11 02:37:50;;;;;;;0.47;0.47;;;13.70;99.90;;;;;;5015679;28;20046;-74
2022/08/11 02:40:34;;;;;;;0.60;0.22;;;13.70;99.90;;;;;;4995282;28;20054;-74
2022/08/11 02:43:25;;;;;;;0.88;0.50;;;13.70;99.90;;;;;;4994937;28;20050;-74
2022/08/11 02:46:16;;;;;;;0.30;0.30;;;13.60;99.90;;;;;;4993788;28;20046;-74
2022/08/11 02:52:30;;;;;;;1.10;0.60;;;13.60;99.90;;;;;;5012426;28;20076;-74
2022/08/11 02:55:07;;;;;;;0.52;0.50;;;13.60;99.90;;;;;;4972937;29;20105;-74
2022/08/11 02:57:40;;;;;;;0.88;0.75;;;13.60;99.90;;;;;;5008622;28;20065;-74
2022/08/11 03:00:07;;;;;;;0.55;0.40;;;13.60;99.90;;;;;;5013591;28;20042;-74
2022/08/11 03:02:58;;;;;;;1.00;0.70;;;13.60;99.90;;;;;;5013234;28;20098;-74
2022/08/11 03:05:48;;;;;;;0.50;0.50;;;13.60;99.90;;;;;;5012849;28;20066;-74
2022/08/11 03:08:51;;;;;;;0.20;0.20;;;13.50;99.90;;;;;;5008391;28;20054;-74
2022/08/11 03:17:54;;;;;;;0.38;0.10;;;13.50;99.90;;;;;;4994299;28;20058;-74
2022/08/11 03:20:34;;;;;;;0.52;0.20;;;13.50;99.90;;;;;;4992920;28;20046;-74
2022/08/11 03:23:07;;;;;;;0.20;0.20;;;13.40;99.90;;;;;;4994347;28;20102;-74
2022/08/11 03:26:02;;;;;;;0.35;0.30;;;13.30;99.90;;;;;;4994491;28;20043;-74
2022/08/11 03:28:50;;;;;;;0.25;0.20;;;13.20;99.90;;;;;;4992286;28;20050;-74
2022/08/11 03:31:37;;;;;;;2.78;1.02;;;13.20;99.90;;;;;;5012705;28;20074;-75
2022/08/11 03:34:19;;;;;;;0.35;0.28;;;13.20;99.90;;;;;;5012411;28;20046;-74
2022/08/11 03:37:06;;;;;;;0.43;0.30;;;13.20;99.90;;;;;;5008207;28;20074;-74
2022/08/11 03:40:01;;;;;;;0.45;0.45;;;13.20;99.90;;;;;;4993542;28;20081;-74
2022/08/11 03:42:56;;;;;;;0.20;0.20;;;13.30;99.90;;;;;;4993934;28;20133;-74
2022/08/11 03:45:47;;;;;;;0.55;0.55;;;13.30;99.90;;;;;;4993594;28;20046;-75
2022/08/11 03:48:21;;;;;;;0.22;0.20;;;13.20;99.90;;;;;;4994474;28;20074;-75
2022/08/11 03:51:12;;;;;;;0.00;0.00;;;13.40;99.90;;;;;;5014207;28;20050;-74
2022/08/11 03:53:41;;;;;;;0.13;0.13;;;13.20;99.90;;;;;;5013628;28;20065;-74
2022/08/11 03:56:17;;;;;;;1.20;0.57;;;13.30;99.90;;;;;;5013510;28;20509;-74
2022/08/11 03:58:58;;;;;;;0.85;0.45;;;13.40;99.90;;;;;;5008205;28;20042;-75
2022/08/11 04:01:39;;;;;;;0.40;0.13;;;13.50;99.90;;;;;;5012894;28;20076;-74
2022/08/11 04:04:37;;;;;;;0.15;0.15;;;13.50;99.90;;;;;;5012798;28;20049;-74
2022/08/11 04:07:45;;;;;;;2.47;1.02;;;13.60;99.90;;;;;;4992700;28;20039;-74
2022/08/11 04:10:53;;;;;;;0.00;0.00;;;13.60;99.90;;;;;;4993318;28;20046;-74
2022/08/11 04:13:53;;;;;;;0.10;0.10;;;13.60;99.90;;;;;;4992767;28;20062;-74
2022/08/11 04:16:40;;;;;;;0.38;0.22;;;13.60;99.90;;;;;;4993344;28;20033;-74
2022/08/11 04:19:28;;;;;;;0.00;0.00;;;13.60;99.90;;;;;;4993679;28;20514;-74
2022/08/11 04:22:07;;;;;;;0.00;0.00;;;13.60;99.90;;;;;;4999964;28;20069;-75
2022/08/11 04:25:01;;;;;;;0.20;0.20;;;13.50;99.90;;;;;;5012821;28;20114;-75
2022/08/11 04:27:52;;;;;;;0.10;0.10;;;13.50;99.90;;;;;;5007056;28;20050;-74
2022/08/11 04:30:29;;;;;;;0.08;0.08;;;13.50;99.90;;;;;;4995990;28;20039;-74
2022/08/11 04:32:58;;;;;;;0.00;0.00;;;13.40;99.90;;;;;;4993138;28;20034;-74
2022/08/11 04:35:43;;;;;;;0.85;0.47;;;13.40;99.90;;;;;;4992948;28;20046;-74
2022/08/11 04:38:24;;;;;;;0.52;0.47;;;13.40;99.90;;;;;;4999669;28;20034;-74
2022/08/11 04:41:07;;;;;;;0.45;0.43;;;13.50;99.90;;;;;;5005114;28;20073;-75
2022/08/11 04:44:10;;;;;;;0.10;0.10;;;13.50;99.90;;;;;;5013055;28;20046;-74
2022/08/11 04:47:06;;;;;;;1.85;0.70;;;13.60;99.90;;;;;;5016113;28;20038;-74
2022/08/11 05:01:40;;;;;;;0.32;0.10;;;13.70;99.90;;;;;;4994772;28;20050;-75
2022/08/11 05:07:51;;;;;;;0.17;0.17;;;13.70;99.90;;;;;;4994316;28;20113;-75
2022/08/11 05:10:38;;;;;;;0.10;0.10;;;13.80;99.90;;;;;;5006417;28;20053;-76
2022/08/11 05:35:42;;;;;;;0.68;0.50;;;15.60;99.90;;;;;;4998247;28;20069;-75
2022/08/11 05:57:53;;;;;;;1.33;1.05;;;15.50;99.90;;;;;;5003035;28;20058;-75
2022/08/11 06:00:19;;;;;;;1.08;0.98;;;15.70;99.90;;;;;;5005252;28;20054;-75
2022/08/11 06:02:55;;;;;;;0.93;0.82;;;15.70;99.90;;;;;;5011161;28;20038;-75
2022/08/11 06:05:21;;;;;;;2.28;1.52;;;15.80;99.90;;;;;;5015126;28;20084;-75
2022/08/11 06:07:48;;;;;;;1.15;0.88;;;15.80;99.90;;;;;;5013087;28;20038;-75
2022/08/11 06:10:29;;;;;;;1.60;1.42;;;15.80;99.90;;;;;;5005439;28;20047;-75
2022/08/11 06:12:59;;;;;;;1.48;0.57;;;15.90;99.90;;;;;;5001762;28;20050;-75
2022/08/11 06:15:26;;;;;;;0.93;0.82;;;16.00;99.90;;;;;;5000862;28;20073;-75
2022/08/11 06:17:55;;;;;;;0.77;0.63;;;16.30;99.90;;;;;;5001064;28;20074;-75
2022/08/11 06:20:22;;;;;;;1.48;1.33;;;16.70;99.90;;;;;;5000695;28;20057;-76
2022/08/11 06:22:57;;;;;;;0.20;0.20;;;16.80;99.90;;;;;;5000867;28;20055;-75
2022/08/11 06:25:30;;;;;;;0.98;0.82;;;17.20;99.90;;;;;;4995865;28;20043;-75
2022/08/11 06:27:56;;;;;;;0.40;0.35;;;17.80;99.90;;;;;;4997549;28;20039;-75
2022/08/11 06:30:37;;;;;;;1.45;0.70;;;18.00;99.90;;;;;;4996710;28;20500;-75
2022/08/11 06:33:09;;;;;;;1.92;0.77;;;18.70;99.90;;;;;;4996955;28;20070;-76
2022/08/11 06:35:55;;;;;;;0.25;0.22;;;19.40;99.90;;;;;;4991940;28;20125;-75
2022/08/11 06:38:42;;;;;;;1.15;0.88;;;20.10;99.90;;;;;;4999801;28;20050;-76
2022/08/11 06:41:31;;;;;;;1.65;1.50;;;20.50;99.90;;;;;;4999801;28;20098;-76
2022/08/11 06:44:09;;;;;;;0.75;0.70;;;21.10;99.90;;;;;;4997825;28;20069;-75
2022/08/11 06:46:43;;;;;;;1.40;0.95;;;21.50;99.90;;;;;;4997463;28;20065;-76
2022/08/11 06:52:06;;;;;;;2.67;0.65;;;22.80;99.90;;;;;;5003237;28;20493;-76
2022/08/11 06:54:37;;;;;;;2.00;1.02;;;22.80;99.90;;;;;;5008935;28;20058;-76
2022/08/11 07:02:45;;;;;;;1.48;0.98;;;24.10;99.90;;;;;;5006973;28;20385;-76
2022/08/11 07:05:16;;;;;;;0.90;0.67;;;24.50;99.90;;;;;;5006341;28;20080;-76
2022/08/11 07:16:30;;;;;;;3.03;1.38;;;25.60;99.90;;;;;;4988591;28;20552;-76
2022/08/11 07:30:36;;;;;;;0.77;0.43;;;25.60;78.50;;;;;;4997816;28;20086;-76
2022/08/11 07:33:03;;;;;;;0.10;0.10;;;25.70;82.60;;;;;;5002624;28;20066;-77
2022/08/11 07:35:48;;;;;;;0.60;0.60;;;26.00;77.00;;;;;;5008785;28;20035;-76
2022/08/11 07:38:20;;;;;;;0.08;0.05;;;26.40;80.50;;;;;;4993437;28;20091;-76
2022/08/11 07:40:46;;;;;;;21.55;0.65;;;26.70;68.30;;;;;;4991036;28;20046;-76
2022/08/11 07:43:12;;;;;;;0.05;0.05;;;27.10;64.60;;;;;;4992219;28;20035;-76
2022/08/11 07:54:04;;;;;;;0.52;0.38;;;28.00;25.90;;;;;;4988608;28;20205;-77
2022/08/11 07:56:34;;;;;;;0.82;0.63;;;28.40;29.60;;;;;;4990657;28;20095;-76
2022/08/11 08:18:22;;;;;;;0.32;0.30;;;31.00;2.10;;;;;;4987202;28;20070;-76
2022/08/11 08:20:49;;;;;;;1.15;0.20;;;30.30;1.00;;;;;;4991940;28;20058;-74
2022/08/11 08:23:16;;;;;;;0.90;0.45;;;30.50;1.80;;;;;;4985539;28;20043;-74
2022/08/11 08:25:44;;;;;;;0.17;0.17;;;30.70;1.00;;;;;;4987546;28;20042;-73
2022/08/11 08:28:14;;;;;;;0.10;0.10;;;30.70;3.50;;;;;;4991351;28;20054;-74
2022/08/11 08:30:48;;;;;;;0.38;0.22;;;31.00;1.00;;;;;;4995911;28;20089;-73
2022/08/11 08:33:17;;;;;;;1.45;0.20;;;31.70;1.00;;;;;;5001117;28;20045;-73
2022/08/11 08:35:44;;;;;;;0.10;0.10;;;31.60;1.00;;;;;;4998815;28;20062;-74
2022/08/11 08:38:11;;;;;;;0.20;0.15;;;32.00;1.00;;;;;;4999985;28;20049;-74
2022/08/11 08:40:40;;;;;;;0.05;0.05;;;32.30;1.00;;;;;;5002011;28;20034;-73
2022/08/11 08:43:10;;;;;;;0.00;0.00;;;31.80;1.00;;;;;;5006883;28;20050;-74
2022/08/11 08:45:37;;;;;;;0.00;0.00;;;31.10;1.00;;;;;;5011003;28;20039;-74
2022/08/11 08:48:07;;;;;;;0.00;0.00;;;31.10;1.00;;;;;;5008363;28;20046;-74
2022/08/11 08:53:28;;;;;;;0.00;0.00;;;32.40;1.00;;;;;;5002550;28;20065;-73
2022/08/11 08:55:55;;;;;;;0.10;0.10;;;32.40;1.00;;;;;;5012140;28;20081;-74
2022/08/11 08:58:23;;;;;;;0.20;0.20;;;33.30;1.00;;;;;;5008335;28;20054;-73
2022/08/11 09:00:53;;;;;;;2.28;1.08;;;32.60;1.00;;;;;;4997892;28;20654;-74
2022/08/11 09:03:19;;;;;;;0.05;0.05;;;32.60;1.00;;;;;;4995782;28;20038;-74
2022/08/11 09:05:46;;;;;;;8.13;0.50;;;32.90;1.00;;;;;;4995994;28;20042;-74
2022/08/11 09:08:13;;;;;;;0.10;0.05;;;32.50;1.00;;;;;;4996269;28;20046;-73
2022/08/11 09:10:39;;;;;;;0.08;0.08;;;32.80;1.00;;;;;;4995637;28;20055;-73
2022/08/11 09:13:05;;;;;;;0.00;0.00;;;32.50;1.00;;;;;;4998259;28;20053;-73
2022/08/11 09:15:32;;;;;;;0.10;0.10;;;32.70;1.00;;;;;;4997977;28;20047;-74
2022/08/11 09:18:08;;;;;;;0.17;0.17;;;33.20;1.00;;;;;;4998353;28;20058;-73
2022/08/11 09:20:36;;;;;;;0.90;0.30;;;33.50;1.00;;;;;;4998863;28;20058;-73
2022/08/11 09:28:44;;;;;;;0.08;0.08;;;33.90;1.00;;;;;;4988304;28;20066;-73
2022/08/11 09:31:13;;;;;;;0.15;0.13;;;33.60;1.00;;;;;;4986652;28;20090;-73
2022/08/11 09:33:41;;;;;;;0.60;0.30;;;34.10;1.00;;;;;;4988326;28;20170;-72
2022/08/11 09:41:38;;;;;;;0.00;0.00;;;33.00;1.00;;;;;;5001971;28;20065;-73
2022/08/11 09:46:56;;;;;;;0.00;0.00;;;32.30;1.00;;;;;;4998738;28;20158;-73
2022/08/11 09:49:22;;;;;;;0.05;0.05;;;31.70;1.00;;;;;;4993919;28;20046;-73
2022/08/11 09:51:49;;;;;;;0.47;0.25;;;32.10;1.00;;;;;;4985399;28;20067;-74
2022/08/11 09:54:16;;;;;;;0.10;0.10;;;31.70;1.00;;;;;;4984486;28;20097;-73
2022/08/11 09:59:27;;;;;;;0.00;0.00;;;31.90;1.00;;;;;;4985755;28;20043;-73
2022/08/11 10:02:01;;;;;;;0.00;0.00;;;31.60;1.00;;;;;;4984771;28;20312;-73
2022/08/11 10:04:41;;;;;;;0.28;0.15;;;31.50;1.00;;;;;;4986667;28;20058;-73
2022/08/11 10:07:09;;;;;;;0.20;0.20;;;31.20;1.00;;;;;;4990548;28;20054;-73
2022/08/11 10:09:39;;;;;;;0.00;0.00;;;31.20;1.00;;;;;;4990386;28;20043;-73
2022/08/11 10:12:09;;;;;;;0.60;0.30;;;31.40;1.00;;;;;;4990003;28;20077;-74
2022/08/11 10:17:24;;;;;;;0.10;0.10;;;30.30;1.00;;;;;;4990970;28;20062;-73
2022/08/11 10:19:51;;;;;;;0.43;0.25;;;30.60;1.00;;;;;;4990423;28;20430;-74
2022/08/11 10:27:57;;;;;;;0.22;0.22;;;31.10;1.00;;;;;;4990961;28;20047;-76
2022/08/11 10:36:00;;;;;;;0.00;0.00;;;30.70;1.00;;;;;;4988823;28;20054;-73
2022/08/11 10:38:27;;;;;;;1.88;0.32;;;31.20;1.00;;;;;;4989270;28;20053;-73
2022/08/11 10:43:40;;;;;;;3.33;0.40;;;31.80;1.00;;;;;;4985717;28;20054;-73
2022/08/11 10:48:55;;;;;;;0.00;0.00;;;31.40;1.00;;;;;;4989329;28;20055;-73
2022/08/11 10:59:41;;;;;;;0.10;0.05;;;32.00;1.00;;;;;;4988014;28;20437;-73
2022/08/11 11:02:12;;;;;;;0.05;0.03;;;31.90;1.00;;;;;;4990564;28;20051;-74
2022/08/11 11:05:08;;;;;;;0.32;0.20;;;32.20;1.00;;;;;;4987340;28;20034;-73
2022/08/11 11:08:51;;;;;;;0.03;0.00;;;32.40;1.00;;;;;;4989229;28;20057;-73
2022/08/11 11:10:55;;;;;;;0.20;0.10;;;32.30;1.00;;;;;;4986116;28;20576;-73
2022/08/11 11:18:58;;;;;;;0.00;0.00;;;32.30;1.00;;;;;;4990072;28;20061;-73
2022/08/11 11:21:24;;;;;;;0.00;0.00;;;32.30;1.00;;;;;;4990669;28;20038;-73
2022/08/11 11:23:56;;;;;;;2.28;0.40;;;32.60;1.00;;;;;;4988812;28;20043;-74
2022/08/11 11:26:30;;;;;;;0.00;0.00;;;32.90;1.00;;;;;;4986674;28;20051;-73
2022/08/11 11:29:26;;;;;;;0.00;0.00;;;33.00;1.00;;;;;;4990627;28;20050;-73
2022/08/11 11:32:10;;;;;;;;;;;33.10;1.00;;;;;;4987930;28;20114;-73
2022/08/11 11:35:04;;;;;;;0.00;0.00;;;33.30;1.00;;;;;;4985359;28;19922;-74
2022/08/11 11:37:34;;;;;;;0.20;0.10;;;34.10;1.00;;;;;;4986163;28;20047;-73
2022/08/11 11:40:01;;;;;;;0.85;0.20;;;34.00;1.00;;;;;;4984820;28;20050;-73
2022/08/11 11:42:28;;;;;;;0.32;0.25;;;33.80;1.00;;;;;;4983944;28;20078;-73
2022/08/11 11:44:54;;;;;;;1.85;0.20;;;34.70;1.00;;;;;;4985211;28;20050;-73
2022/08/11 11:47:21;;;;;;;0.65;0.32;;;35.30;1.00;;;;;;4984477;28;20046;-73
2022/08/11 11:49:48;;;;;;;0.00;0.00;;;36.00;1.00;;;;;;4986106;28;20050;-74
2022/08/11 11:52:19;;;;;;;0.10;0.10;;;34.90;1.00;;;;;;4985650;28;20043;-73
2022/08/11 11:54:53;;;;;;;0.10;0.10;;;34.60;1.00;;;;;;4982891;28;20059;-73
2022/08/11 12:02:52;;;;;;;1.65;0.32;;;35.30;1.00;;;;;;4986316;28;20051;-73
2022/08/11 12:05:18;;;;;;;0.10;0.10;;;34.90;1.00;;;;;;4987488;28;20368;-73
2022/08/11 12:10:30;;;;;;;0.22;0.22;;;34.70;1.00;;;;;;4986431;28;20430;-73
2022/08/11 12:15:44;;;;;;;0.20;0.17;;;34.50;1.00;;;;;;4986894;28;20050;-73
2022/08/11 12:18:10;;;;;;;0.00;0.00;;;34.80;1.00;;;;;;4987106;28;20051;-74
2022/08/11 12:20:37;;;;;;;0.20;0.20;;;35.70;1.00;;;;;;4989652;28;20082;-73
2022/08/11 12:28:33;;;;;;;0.00;0.00;;;35.50;1.00;;;;;;4985837;28;19929;-73
2022/08/11 12:30:59;;;;;;;0.30;0.30;;;35.60;1.00;;;;;;4984354;28;20074;-73
2022/08/11 12:33:25;;;;;;;0.00;0.00;;;35.60;1.00;;;;;;4986082;28;20043;-73
2022/08/11 12:35:57;;;;;;;0.57;0.40;;;35.60;1.00;;;;;;4987513;28;20074;-74
2022/08/11 12:38:23;;;;;;;0.10;0.10;;;36.30;1.00;;;;;;4987817;28;20046;-74
2022/08/11 12:46:23;;;;;;;1.27;0.28;;;35.90;1.00;;;;;;4986214;28;20057;-73
2022/08/11 12:51:58;;;;;;;0.50;0.35;;;36.70;1.00;;;;;;4987117;28;20055;-74
2022/08/11 12:54:57;;;;;;;0.00;0.00;;;37.00;1.00;;;;;;4988903;28;20055;-74
2022/08/11 13:05:44;;;;;;;0.17;0.17;;;38.20;1.00;;;;;;4984868;28;20091;-74
2022/08/11 13:08:13;;;;;;;0.10;0.08;;;37.30;1.00;;;;;;4988091;28;20095;-74
2022/08/11 13:13:23;;;;;;;0.22;0.17;;;36.70;1.00;;;;;;4986561;28;20370;-73
2022/08/11 13:15:50;;;;;;;0.30;0.20;;;37.40;1.00;;;;;;4983477;28;20047;-73
2022/08/11 13:18:21;;;;;;;0.22;0.22;;;37.80;1.00;;;;;;4986591;28;20082;-73
2022/08/11 13:20:48;;;;;;;0.00;0.00;;;38.00;1.00;;;;;;4983590;28;20074;-73
2022/08/11 13:23:15;;;;;;;0.57;0.32;;;38.60;1.00;;;;;;4983840;28;20196;-74
2022/08/11 13:25:42;;;;;;;0.00;0.00;;;38.20;1.00;;;;;;4986759;28;20043;-74
2022/08/11 13:28:09;;;;;;;0.00;0.00;;;37.20;1.00;;;;;;4987684;28;20126;-74
2022/08/11 13:33:21;;;;;;;;;;;38.00;1.00;;;;;;4987817;28;20482;-74
2022/08/11 13:35:49;;;;;;;0.03;0.00;;;37.30;1.00;;;;;;4984625;28;19949;-74
2022/08/11 13:38:17;;;;;;;0.13;0.10;;;36.60;1.00;;;;;;4985740;28;20047;-74
2022/08/11 13:40:44;;;;;;;0.63;0.52;;;36.40;1.00;;;;;;4983579;28;20067;-74
2022/08/11 13:43:12;;;;;;;0.05;0.00;;;36.20;1.00;;;;;;4985178;28;20098;-74
2022/08/11 13:45:39;;;;;;;0.45;0.20;;;36.20;1.00;;;;;;4982971;28;20046;-73
2022/08/11 13:48:08;;;;;;;0.20;0.20;;;36.80;1.00;;;;;;4979403;28;20362;-74
2022/08/11 13:53:24;;;;;;;0.00;0.00;;;37.20;1.00;;;;;;4984972;28;20047;-73
2022/08/11 13:55:50;;;;;;;1.10;0.30;;;37.40;1.00;;;;;;4980346;28;20086;-74
2022/08/11 13:58:16;;;;;;;0.10;0.10;;;37.60;1.00;;;;;;4984749;28;20069;-74
2022/08/11 14:00:46;;;;;;;0.10;0.10;;;37.30;1.00;;;;;;4982428;28;20046;-74
2022/08/11 14:03:13;;;;;;;0.90;0.45;;;38.10;1.00;;;;;;4981810;28;20488;-74
2022/08/11 14:05:45;;;;;;;0.82;0.45;;;37.00;1.00;;;;;;4981518;28;20047;-74
2022/08/11 14:08:14;;;;;;;0.10;0.10;;;36.80;1.00;;;;;;4980497;28;20082;-74
2022/08/11 14:10:40;;;;;;;0.10;0.10;;;36.70;1.00;;;;;;4980393;28;20047;-73
2022/08/11 14:16:03;;;;;;;0.10;0.00;;;37.30;1.00;;;;;;4983675;28;20086;-74
2022/08/11 14:18:31;;;;;;;0.52;0.30;;;36.90;1.00;;;;;;4986661;28;20054;-74
2022/08/11 14:23:53;;;;;;;0.22;0.22;;;37.90;1.00;;;;;;4980676;28;20477;-74
2022/08/11 14:26:27;;;;;;;19.30;0.43;;;36.70;1.00;;;;;;4978771;28;20046;-74
2022/08/11 14:29:01;;;;;;;0.20;0.17;;;36.60;1.00;;;;;;4978715;28;20058;-74
2022/08/11 14:31:29;;;;;;;0.10;0.10;;;36.30;1.00;;;;;;4981805;28;20042;-74
2022/08/11 14:33:56;;;;;;;2.15;0.40;;;36.30;1.00;;;;;;4985188;28;20090;-74
2022/08/11 14:36:25;;;;;;;0.75;0.35;;;36.60;1.00;;;;;;4988111;28;20047;-74
2022/08/11 14:38:52;;;;;;;0.20;0.10;;;36.70;1.00;;;;;;4987468;28;20046;-74
2022/08/11 14:47:04;;;;;;;3.60;0.40;;;36.40;1.00;;;;;;5002424;28;19937;-74
2022/08/11 14:49:34;;;;;;;0.00;0.00;;;35.70;1.00;;;;;;5002043;28;20125;-74
2022/08/11 14:52:05;;;;;;;0.13;0.13;;;36.00;1.00;;;;;;5003436;28;20042;-74
2022/08/11 14:57:17;;;;;;;0.15;0.08;;;36.30;1.00;;;;;;5001279;28;20061;-74
2022/08/11 14:59:48;;;;;;;0.10;0.10;;;36.00;1.00;;;;;;5004390;28;20042;-74
2022/08/11 15:05:03;;;;;;;0.10;0.10;;;35.80;1.00;;;;;;5002349;28;20061;-73
2022/08/11 15:07:30;;;;;;;0.10;0.00;;;35.80;1.00;;;;;;4999860;28;20089;-73
2022/08/11 15:09:57;;;;;;;0.08;0.08;;;36.20;1.00;;;;;;4997427;28;20050;-73
2022/08/11 15:12:24;;;;;;;0.47;0.28;;;35.90;1.00;;;;;;5001474;28;20039;-73
2022/08/11 15:17:35;;;;;;;;;;;36.00;1.00;;;;;;5001192;28;20054;-73
2022/08/11 15:25:35;;;;;;;0.00;0.00;;;35.10;1.00;;;;;;5002466;28;20054;-73
2022/08/11 15:39:21;;;;;;;;;;;34.90;1.00;;;;;;5009136;28;20093;-74
2022/08/11 15:47:39;;;;;;;0.00;0.00;;;34.50;1.00;;;;;;5002820;28;20057;-74
2022/08/11 15:50:07;;;;;;;0.10;0.10;;;34.70;1.00;;;;;;4999783;28;20065;-74
2022/08/11 15:52:38;;;;;;;0.30;0.13;;;34.10;1.00;;;;;;4998658;28;20116;-73
2022/08/11 15:55:06;;;;;;;0.00;0.00;;;34.00;1.00;;;;;;4996413;28;20069;-73
2022/08/11 16:05:49;;;;;;;0.08;0.08;;;33.90;1.00;;;;;;4978766;28;20070;-75
2022/08/11 16:08:21;;;;;;;0.52;0.35;;;33.60;1.00;;;;;;4977131;28;20047;-74
2022/08/11 16:10:47;;;;;;;0.68;0.20;;;33.60;1.00;;;;;;4977948;28;20469;-73
2022/08/11 16:16:13;;;;;;;0.10;0.10;;;32.90;1.00;;;;;;4977158;28;20051;-74
2022/08/11 16:18:53;;;;;;;0.63;0.35;;;33.00;1.00;;;;;;4978887;28;20058;-74
2022/08/11 16:21:22;;;;;;;0.68;0.30;;;33.20;1.00;;;;;;4979965;28;20085;-74
2022/08/11 16:23:50;;;;;;;0.68;0.40;;;33.90;1.00;;;;;;4977276;28;20100;-73
2022/08/11 16:26:23;;;;;;;0.05;0.05;;;33.60;1.00;;;;;;4980399;28;20382;-73
2022/08/11 16:28:56;;;;;;;0.00;0.00;;;33.60;1.00;;;;;;4976675;28;20161;-74
2022/08/11 16:31:23;;;;;;;0.57;0.30;;;33.20;1.00;;;;;;4976132;28;20054;-74
2022/08/11 16:33:52;;;;;;;0.52;0.35;;;32.40;1.00;;;;;;4975833;28;20106;-73
2022/08/11 16:39:07;;;;;;;0.03;0.03;;;31.80;1.00;;;;;;4981707;28;20117;-74
2022/08/11 16:47:17;;;;;;;0.05;0.00;;;32.00;1.00;;;;;;5004948;28;20050;-73
2022/08/11 16:49:50;;;;;;;0.65;0.20;;;31.80;1.00;;;;;;4985817;28;20054;-73
2022/08/11 16:52:16;;;;;;;0.43;0.20;;;31.80;1.00;;;;;;5001859;28;20078;-74
2022/08/11 16:54:42;;;;;;;0.00;0.00;;;32.00;1.00;;;;;;4999509;28;20057;-73
2022/08/11 17:00:03;;;;;;;0.00;0.00;;;31.40;1.00;;;;;;4998277;28;20493;-73
2022/08/11 17:14:13;;;;;;;0.25;0.20;;;28.70;1.00;;;;;;5003104;28;20058;-73
2022/08/11 17:16:40;;;;;;;0.00;0.00;;;28.20;1.00;;;;;;5005874;28;20474;-73
2022/08/11 17:19:13;;;;;;;0.65;0.20;;;27.70;1.00;;;;;;5003166;28;20070;-72
2022/08/11 17:24:32;;;;;;;0.85;0.30;;;27.10;1.00;;;;;;4991015;28;20406;-72
2022/08/11 17:26:59;;;;;;;0.20;0.17;;;26.80;5.30;;;;;;4987609;28;20047;-73
2022/08/11 17:29:36;;;;;;;0.22;0.20;;;26.50;5.60;;;;;;5002805;28;20039;-72
2022/08/11 17:37:40;;;;;;;0.68;0.28;;;26.20;17.00;;;;;;4989937;28;20110;-76
2022/08/11 17:40:08;;;;;;;0.47;0.40;;;26.00;19.80;;;;;;4991972;28;20103;-75
2022/08/11 17:48:24;;;;;;;0.28;0.28;;;25.70;28.80;;;;;;5001258;28;20568;-77
2022/08/11 17:50:53;;;;;;;0.00;0.00;;;25.70;34.30;;;;;;4997762;28;20050;-76
2022/08/11 18:01:48;;;;;;;0.55;0.28;;;25.20;54.60;;;;;;4998028;28;20054;-76
2022/08/11 18:04:15;;;;;;;0.30;0.25;;;25.10;66.00;;;;;;5001673;28;20498;-76
2022/08/11 18:06:41;;;;;;;0.63;0.57;;;25.00;68.80;;;;;;5000415;28;20049;-76
